Time;durP1;ratioP1;P1;durP2;ratioP2;P2;SDS_P1;SDS_P2;PMS_P1;PMS_P2;Temp;Humidity;BMP_temperature;BMP_pressure;BME280_temperature;BME280_humidity;BME280_pressure;Samples;Min_cycle;Max_cycle;Signal;HPM_P1;HPM_P2
2022/10/20 00:01:30;;;;;;;6.30;2.03;;;;;;;5.90;97.69;102196.06;5034234;28;20478;-70
2022/10/20 00:03:57;;;;;;;5.60;1.67;;;;;;;6.03;97.17;102198.56;5031545;28;20835;-71
2022/10/20 00:06:25;;;;;;;4.43;1.40;;;;;;;5.99;98.90;102200.91;5033950;28;20467;-71
2022/10/20 00:08:53;;;;;;;14.67;1.73;;;;;;;6.06;98.62;102192.72;5033020;28;20455;-71
2022/10/20 00:11:21;;;;;;;4.07;1.30;;;;;;;6.09;99.13;102189.56;5034104;28;20443;-70
2022/10/20 00:13:50;;;;;;;4.83;1.80;;;;;;;6.01;100.00;102187.22;5029257;28;20463;-71
2022/10/20 00:16:19;;;;;;;5.87;1.70;;;;;;;5.99;100.00;102181.25;5032747;28;20483;-70
2022/10/20 00:18:45;;;;;;;4.33;1.50;;;;;;;6.01;100.00;102187.22;5033886;28;20447;-70
2022/10/20 00:21:14;;;;;;;4.27;1.43;;;;;;;6.06;100.00;102184.66;5032281;28;20470;-70
2022/10/20 00:23:41;;;;;;;3.70;1.33;;;;;;;6.03;100.00;102179.75;5033699;28;20446;-70
2022/10/20 00:26:10;;;;;;;17.47;2.57;;;;;;;6.05;100.00;102174.94;5032201;28;20530;-70
2022/10/20 00:28:37;;;;;;;5.37;1.43;;;;;;;5.99;100.00;102173.19;5033686;28;20447;-70
2022/10/20 00:31:03;;;;;;;5.23;2.10;;;;;;;6.03;100.00;102180.56;5032569;28;20879;-70
2022/10/20 00:33:32;;;;;;;5.33;1.20;;;;;;;6.07;100.00;102175.56;5033705;28;20454;-71
2022/10/20 00:35:58;;;;;;;7.13;1.90;;;;;;;6.05;100.00;102172.25;5032474;28;20545;-71
2022/10/20 00:38:25;;;;;;;3.47;0.90;;;;;;;6.04;99.29;102167.94;5033352;28;20938;-71
2022/10/20 00:40:52;;;;;;;5.80;1.83;;;;;;;5.99;97.77;102168.63;5032551;28;20455;-73
2022/10/20 00:43:19;;;;;;;8.60;1.77;;;;;;;5.98;97.49;102153.56;5032655;28;20517;-71
2022/10/20 00:45:52;;;;;;;9.83;2.57;;;;;;;5.94;97.81;102143.50;5031912;28;20490;-71
2022/10/20 00:48:21;;;;;;;6.93;1.97;;;;;;;5.91;97.89;102150.09;5033345;28;20439;-71
2022/10/20 00:50:52;;;;;;;4.53;1.50;;;;;;;5.93;98.83;102153.44;5033543;28;20451;-71
2022/10/20 00:53:20;;;;;;;6.40;1.37;;;;;;;5.88;96.83;102153.25;5031952;28;20961;-71
2022/10/20 00:55:48;;;;;;;4.40;1.13;;;;;;;5.96;96.93;102144.88;5031231;28;20490;-72
2022/10/20 00:58:15;;;;;;;5.10;1.43;;;;;;;5.90;100.00;102142.28;5013783;28;20455;-71
2022/10/20 01:00:44;;;;;;;4.30;1.40;;;;;;;5.93;100.00;102144.50;5017605;28;20459;-71
2022/10/20 01:03:16;;;;;;;5.80;2.03;;;;;;;5.96;100.00;102139.50;5033322;28;20443;-71
2022/10/20 01:05:42;;;;;;;4.40;1.27;;;;;;;5.97;100.00;102149.19;5031880;28;20475;-72
2022/10/20 01:08:10;;;;;;;4.17;1.53;;;;;;;5.95;100.00;102150.50;5033281;28;20453;-72
2022/10/20 01:10:43;;;;;;;8.60;1.50;;;;;;;5.92;100.00;102140.19;5032180;28;20493;-71
2022/10/20 01:13:18;;;;;;;5.50;1.70;;;;;;;5.92;100.00;102142.88;5033343;28;20439;-71
2022/10/20 01:15:54;;;;;;;4.43;1.40;;;;;;;5.90;100.00;102153.03;5031853;28;20490;-72
2022/10/20 01:18:27;;;;;;;5.23;1.50;;;;;;;5.80;100.00;102137.47;5033213;28;20454;-71
2022/10/20 01:21:12;;;;;;;5.40;1.60;;;;;;;5.94;100.00;102135.41;5032186;28;20462;-70
2022/10/20 01:24:05;;;;;;;5.47;1.60;;;;;;;5.99;100.00;102132.84;5033193;28;20495;-71
2022/10/20 01:27:06;;;;;;;4.83;1.70;;;;;;;5.96;100.00;102127.94;5031745;28;20949;-72
2022/10/20 01:29:39;;;;;;;5.60;1.97;;;;;;;5.92;99.38;102118.69;5031998;28;20455;-71
2022/10/20 01:32:13;;;;;;;4.23;1.30;;;;;;;5.78;99.21;102118.03;5032665;28;20459;-71
2022/10/20 01:34:50;;;;;;;9.53;1.53;;;;;;;5.78;98.81;102124.25;5036807;28;20473;-71
2022/10/20 01:37:25;;;;;;;5.50;1.70;;;;;;;5.54;98.14;102112.63;5035713;28;20462;-71
2022/10/20 01:39:56;;;;;;;4.73;1.63;;;;;;;5.62;98.40;102110.63;5036789;28;20454;-70
2022/10/20 01:42:25;;;;;;;4.03;1.10;;;;;;;5.54;97.80;102101.88;5034807;28;20879;-72
2022/10/20 01:44:56;;;;;;;6.07;1.73;;;;;;;5.49;97.73;102115.19;5035317;28;20463;-71
2022/10/20 01:47:26;;;;;;;4.33;1.30;;;;;;;5.38;98.86;102107.88;5035327;28;20465;-71
2022/10/20 01:49:53;;;;;;;4.10;1.30;;;;;;;5.43;98.98;102102.66;5035479;28;20435;-71
2022/10/20 01:52:21;;;;;;;3.77;1.03;;;;;;;5.51;98.48;102093.44;5016803;28;20436;-70
2022/10/20 01:54:48;;;;;;;6.90;1.70;;;;;;;5.56;99.32;102090.88;5034904;28;20482;-70
2022/10/20 01:57:30;;;;;;;10.83;1.30;;;;;;;5.59;99.66;102087.75;5034918;28;20462;-71
2022/10/20 02:00:05;;;;;;;5.17;1.50;;;;;;;5.56;100.00;102083.63;5036463;28;20427;-70
2022/10/20 02:02:50;;;;;;;4.63;1.20;;;;;;;5.65;99.94;102083.31;5035600;28;20458;-71
2022/10/20 02:05:32;;;;;;;4.30;1.33;;;;;;;5.72;100.00;102068.72;5035924;28;21004;-71
2022/10/20 02:08:11;;;;;;;4.80;1.30;;;;;;;5.60;100.00;102067.88;5035103;28;20462;-71
2022/10/20 02:10:44;;;;;;;4.30;1.53;;;;;;;5.76;100.00;102064.50;5036311;28;20840;-70
2022/10/20 02:13:12;;;;;;;4.30;1.20;;;;;;;5.75;100.00;102053.97;5035286;28;20459;-71
2022/10/20 02:15:44;;;;;;;6.50;1.93;;;;;;;5.71;100.00;102053.66;5036039;28;20498;-71
2022/10/20 02:18:16;;;;;;;4.00;1.20;;;;;;;5.68;100.00;102058.66;5035377;28;20463;-72
2022/10/20 02:20:44;;;;;;;3.80;1.20;;;;;;;5.68;100.00;102050.59;5035806;28;20499;-67
2022/10/20 02:23:11;;;;;;;4.70;1.43;;;;;;;5.75;100.00;102051.28;5034807;28;20470;-67
2022/10/20 02:25:39;;;;;;;4.07;1.37;;;;;;;5.61;100.00;102052.56;5035460;28;20875;-70
2022/10/20 02:28:10;;;;;;;4.60;1.20;;;;;;;5.63;100.00;102056.66;5034741;28;20467;-72
2022/10/20 02:30:37;;;;;;;5.00;1.67;;;;;;;5.66;100.00;102056.19;5035548;28;20957;-69
2022/10/20 02:33:07;;;;;;;3.60;0.90;;;;;;;5.64;99.59;102061.00;5034620;28;20957;-70
2022/10/20 02:35:34;;;;;;;5.33;1.30;;;;;;;5.48;98.30;102054.41;5034715;28;20491;-70
2022/10/20 02:38:02;;;;;;;5.63;1.47;;;;;;;5.38;98.45;102050.66;5034747;28;20470;-69
2022/10/20 02:40:28;;;;;;;5.57;2.00;;;;;;;5.31;99.17;102042.69;5035670;28;20446;-69
2022/10/20 02:42:55;;;;;;;5.23;1.73;;;;;;;5.26;97.46;102040.69;5034301;28;20459;-70
2022/10/20 02:45:21;;;;;;;4.00;1.30;;;;;;;5.34;97.85;102041.41;5034228;28;20487;-68
2022/10/20 02:47:48;;;;;;;4.03;1.47;;;;;;;5.30;100.00;102046.41;5034399;28;20458;-70
2022/10/20 02:50:16;;;;;;;4.37;1.20;;;;;;;5.31;100.00;102043.53;5035130;28;21212;-69
2022/10/20 02:52:42;;;;;;;4.30;1.27;;;;;;;5.31;100.00;102040.84;5034281;28;20551;-70
2022/10/20 02:55:09;;;;;;;5.03;1.30;;;;;;;5.39;100.00;102036.16;5034868;28;21012;-69
2022/10/20 02:57:35;;;;;;;5.23;1.50;;;;;;;5.40;100.00;102035.94;5034090;28;20887;-69
2022/10/20 03:00:02;;;;;;;7.60;1.57;;;;;;;5.43;100.00;102018.53;5034692;28;20446;-70
2022/10/20 03:02:28;;;;;;;6.03;1.83;;;;;;;5.45;100.00;102027.19;5034318;28;20876;-69
2022/10/20 03:04:55;;;;;;;6.43;2.00;;;;;;;5.37;100.00;102027.53;5034812;28;21000;-69
2022/10/20 03:07:22;;;;;;;4.00;1.10;;;;;;;5.34;100.00;102031.47;5033832;28;20466;-70
2022/10/20 03:09:49;;;;;;;5.33;1.57;;;;;;;5.36;100.00;102032.09;5034985;28;20498;-69
2022/10/20 03:12:15;;;;;;;6.03;1.67;;;;;;;5.38;100.00;102023.78;5033094;28;20821;-69
2022/10/20 03:14:41;;;;;;;3.87;1.10;;;;;;;5.27;100.00;102026.22;5033413;28;20455;-70
2022/10/20 03:17:08;;;;;;;4.23;1.70;;;;;;;5.29;99.23;102028.66;5033753;28;20462;-70
2022/10/20 03:19:35;;;;;;;4.80;1.70;;;;;;;5.19;100.00;102018.50;5033990;28;20454;-68
2022/10/20 03:22:01;;;;;;;3.57;0.90;;;;;;;5.12;98.14;102011.56;5033322;28;20985;-69
2022/10/20 03:24:29;;;;;;;5.80;1.53;;;;;;;5.05;97.78;102015.19;5034611;28;20452;-70
2022/10/20 03:26:55;;;;;;;3.63;0.90;;;;;;;5.00;97.54;102016.88;5033685;28;20475;-70
2022/10/20 03:29:21;;;;;;;4.40;1.60;;;;;;;4.98;99.40;102008.25;5034337;28;20505;-69
2022/10/20 03:31:48;;;;;;;7.47;1.60;;;;;;;4.94;98.07;102002.53;5033302;28;20508;-69
2022/10/20 03:34:14;;;;;;;4.60;1.17;;;;;;;4.92;98.62;102003.81;5034677;28;20447;-69
2022/10/20 03:36:41;;;;;;;7.80;1.60;;;;;;;4.96;98.93;101999.63;5033273;28;20494;-69
2022/10/20 03:39:07;;;;;;;5.90;1.60;;;;;;;5.01;98.59;102005.13;5014633;28;20444;-69
2022/10/20 03:41:35;;;;;;;4.93;1.90;;;;;;;5.07;99.79;101996.16;5014367;28;20495;-69
2022/10/20 03:44:01;;;;;;;4.20;1.30;;;;;;;5.23;100.00;101992.00;5032979;28;20497;-70
2022/10/20 03:46:28;;;;;;;5.40;1.70;;;;;;;5.28;100.00;101998.31;5059596;22;21005;-74
2022/10/20 03:48:54;;;;;;;6.23;1.40;;;;;;;5.31;100.00;101989.78;5035480;28;20879;-75
2022/10/20 03:51:21;;;;;;;5.30;1.73;;;;;;;5.43;100.00;101992.47;5034364;28;20501;-75
2022/10/20 03:53:47;;;;;;;5.50;1.80;;;;;;;5.50;100.00;101997.75;5033668;28;20839;-75
2022/10/20 03:56:17;;;;;;;6.10;1.50;;;;;;;5.64;100.00;101984.91;5032789;28;21036;-75
2022/10/20 03:58:45;;;;;;;6.43;1.50;;;;;;;5.77;100.00;101982.00;5034312;28;20442;-75
2022/10/20 04:01:14;;;;;;;5.07;1.50;;;;;;;5.80;100.00;101974.28;5032010;28;20513;-75
2022/10/20 04:03:40;;;;;;;7.10;2.10;;;;;;;5.87;100.00;101978.72;5034262;28;20451;-75
2022/10/20 04:06:07;;;;;;;6.37;2.43;;;;;;;5.95;100.00;101978.38;5033055;28;20483;-75
2022/10/20 04:08:33;;;;;;;4.63;1.80;;;;;;;6.08;100.00;101983.50;5034058;28;20447;-74
2022/10/20 04:11:00;;;;;;;6.70;2.00;;;;;;;6.02;100.00;101984.44;5036373;28;20467;-73
2022/10/20 04:13:26;;;;;;;4.30;1.50;;;;;;;6.11;100.00;101987.59;5035503;28;20443;-73
2022/10/20 04:15:54;;;;;;;5.03;1.53;;;;;;;6.10;100.00;101986.78;5032952;28;20495;-73
2022/10/20 04:18:20;;;;;;;5.47;1.80;;;;;;;6.17;100.00;101989.34;5032773;28;20467;-74
2022/10/20 04:20:47;;;;;;;4.43;1.60;;;;;;;6.22;100.00;101992.97;5032674;28;20840;-74
2022/10/20 04:23:14;;;;;;;5.40;1.77;;;;;;;6.18;100.00;101989.09;5033772;28;20500;-73
2022/10/20 04:25:44;;;;;;;4.70;1.73;;;;;;;6.23;100.00;101972.25;5032657;28;20459;-73
2022/10/20 04:28:10;;;;;;;9.83;2.50;;;;;;;6.19;100.00;101971.09;5033676;28;20493;-73
2022/10/20 04:30:38;;;;;;;5.60;2.17;;;;;;;6.25;100.00;101967.47;5032034;28;20463;-73
2022/10/20 04:33:06;;;;;;;4.70;1.80;;;;;;;6.25;100.00;101970.97;5033603;28;20861;-73
2022/10/20 04:35:33;;;;;;;4.93;1.50;;;;;;;6.35;100.00;101970.34;5032320;28;20487;-73
2022/10/20 04:37:59;;;;;;;5.30;1.90;;;;;;;6.37;100.00;101970.09;5033516;28;20439;-73
2022/10/20 04:40:26;;;;;;;5.90;1.60;;;;;;;6.41;100.00;101965.88;5032718;28;20880;-74
2022/10/20 04:42:52;;;;;;;5.80;2.23;;;;;;;6.47;100.00;101965.75;5033688;28;20451;-73
2022/10/20 04:45:19;;;;;;;6.20;2.20;;;;;;;6.48;100.00;101956.63;5031215;28;20467;-73
2022/10/20 04:47:45;;;;;;;12.53;2.30;;;;;;;6.49;100.00;101952.06;5028407;28;20563;-71
2022/10/20 04:50:13;;;;;;;6.00;2.00;;;;;;;6.48;100.00;101962.00;5033235;28;20439;-73
2022/10/20 04:52:39;;;;;;;6.97;2.57;;;;;;;6.50;100.00;101964.44;5031357;28;20471;-72
2022/10/20 04:55:06;;;;;;;7.87;2.67;;;;;;;6.48;100.00;101961.19;5030358;28;20462;-73
2022/10/20 04:57:33;;;;;;;5.80;2.33;;;;;;;6.52;100.00;101960.47;5032028;28;20490;-75
2022/10/20 04:59:59;;;;;;;6.43;2.60;;;;;;;6.54;100.00;101957.53;5032155;28;20478;-74
2022/10/20 05:02:26;;;;;;;7.40;2.03;;;;;;;6.55;100.00;101945.69;5031193;28;20996;-75
2022/10/20 05:04:53;;;;;;;7.87;2.50;;;;;;;6.52;100.00;101940.81;5031386;28;20461;-73
2022/10/20 05:07:20;;;;;;;5.77;2.40;;;;;;;6.43;100.00;101937.69;5036054;28;20463;-72
2022/10/20 05:09:48;;;;;;;7.20;2.47;;;;;;;6.34;100.00;101938.31;5037189;28;20453;-73
2022/10/20 05:12:14;;;;;;;6.37;2.27;;;;;;;6.37;100.00;101932.44;5036594;28;20937;-74
2022/10/20 05:14:40;;;;;;;6.20;2.50;;;;;;;6.37;99.87;101932.44;5034801;28;20929;-74
2022/10/20 05:17:07;;;;;;;6.40;2.50;;;;;;;6.35;99.31;101913.84;5036581;28;21009;-74
2022/10/20 05:19:33;;;;;;;6.57;2.17;;;;;;;6.36;98.92;101931.63;5037034;28;20443;-74
2022/10/20 05:22:01;;;;;;;6.83;2.17;;;;;;;6.25;98.96;101927.09;5034876;28;20463;-75
2022/10/20 05:24:29;;;;;;;4.87;1.80;;;;;;;6.28;99.24;101927.41;5035039;28;20463;-75
2022/10/20 05:26:56;;;;;;;5.80;2.00;;;;;;;6.35;100.00;101923.78;5034850;28;20485;-75
2022/10/20 05:29:22;;;;;;;6.43;2.63;;;;;;;6.41;100.00;101925.50;5035084;28;20473;-75
2022/10/20 05:31:48;;;;;;;6.57;2.30;;;;;;;6.43;100.00;101924.22;5036349;28;20443;-75
2022/10/20 05:34:15;;;;;;;9.90;2.40;;;;;;;6.44;100.00;101927.75;5036855;28;20512;-74
2022/10/20 05:36:41;;;;;;;8.50;2.57;;;;;;;6.41;100.00;101933.59;5036649;28;20494;-74
2022/10/20 05:39:08;;;;;;;7.63;2.80;;;;;;;6.48;100.00;101924.31;5036429;28;20949;-74
2022/10/20 05:41:36;;;;;;;7.33;2.73;;;;;;;6.45;100.00;101929.38;5036648;28;20443;-74
2022/10/20 05:44:05;;;;;;;5.93;2.53;;;;;;;6.45;100.00;101929.38;5036622;28;20451;-74
2022/10/20 05:46:33;;;;;;;8.23;2.90;;;;;;;6.40;100.00;101937.34;5036372;28;20479;-75
2022/10/20 05:49:02;;;;;;;5.60;2.60;;;;;;;6.37;100.00;101935.94;5036297;28;20447;-75
2022/10/20 05:51:30;;;;;;;7.23;2.97;;;;;;;6.45;100.00;101929.38;5036608;28;20501;-74
2022/10/20 05:53:58;;;;;;;9.10;2.87;;;;;;;6.39;100.00;101935.72;5036333;28;20438;-74
2022/10/20 05:56:26;;;;;;;12.57;2.67;;;;;;;6.42;100.00;101945.97;5036350;28;20557;-74
2022/10/20 05:58:54;;;;;;;5.90;2.33;;;;;;;6.40;100.00;101943.53;5036471;28;20447;-76
2022/10/20 06:01:23;;;;;;;7.40;2.80;;;;;;;6.39;100.00;101946.47;5037024;28;20447;-73
2022/10/20 06:03:50;;;;;;;6.27;2.27;;;;;;;6.38;100.00;101944.84;5036157;28;20449;-72
2022/10/20 06:06:18;;;;;;;7.37;3.00;;;;;;;6.32;100.00;101947.41;5035904;28;20985;-75
2022/10/20 06:08:45;;;;;;;9.27;4.40;;;;;;;6.32;99.29;101941.22;5036207;28;20447;-75
2022/10/20 06:11:13;;;;;;;10.20;3.37;;;;;;;6.34;99.27;101949.06;5036178;28;20852;-75
2022/10/20 06:13:39;;;;;;;6.77;3.30;;;;;;;6.40;99.98;101948.09;5036114;28;20848;-75
2022/10/20 06:16:10;;;;;;;7.07;3.10;;;;;;;6.47;100.00;101949.59;5035806;28;20490;-76
2022/10/20 06:18:37;;;;;;;7.80;2.70;;;;;;;6.49;100.00;101952.88;5035219;28;20415;-74
2022/10/20 06:21:06;;;;;;;7.80;3.20;;;;;;;6.52;100.00;101941.63;5035952;28;20478;-73
2022/10/20 06:23:32;;;;;;;11.40;3.53;;;;;;;6.58;100.00;101935.28;5036104;28;20473;-73
2022/10/20 06:26:02;;;;;;;6.20;2.30;;;;;;;6.56;100.00;101942.78;5035717;28;20462;-74
2022/10/20 06:28:29;;;;;;;7.27;3.33;;;;;;;6.60;100.00;101932.34;5035439;28;20431;-74
2022/10/20 06:30:56;;;;;;;6.90;2.80;;;;;;;6.66;100.00;101930.56;5035638;28;20859;-72
2022/10/20 06:33:24;;;;;;;8.80;2.80;;;;;;;6.70;100.00;101931.72;5035881;28;20447;-76
2022/10/20 06:35:50;;;;;;;6.70;2.90;;;;;;;6.67;100.00;101927.63;5035471;28;20439;-71
2022/10/20 06:38:17;;;;;;;11.07;3.30;;;;;;;6.70;100.00;101924.47;5035200;28;20443;-71
2022/10/20 06:40:43;;;;;;;10.40;3.20;;;;;;;6.73;100.00;101932.06;5035469;28;20489;-71
2022/10/20 06:43:10;;;;;;;7.27;3.57;;;;;;;6.75;100.00;101923.72;5035324;28;20450;-70
2022/10/20 06:45:36;;;;;;;11.67;3.53;;;;;;;6.81;100.00;101925.44;5035243;28;20505;-72
2022/10/20 06:48:02;;;;;;;7.70;3.07;;;;;;;6.81;99.48;101926.25;5035354;28;20447;-70
2022/10/20 06:50:32;;;;;;;7.50;3.40;;;;;;;6.85;100.00;101929.28;5035334;28;20849;-71
2022/10/20 06:52:59;;;;;;;8.23;2.80;;;;;;;6.87;100.00;101923.69;5034935;28;20439;-71
2022/10/20 06:55:25;;;;;;;8.43;3.13;;;;;;;6.95;100.00;101907.09;5035297;28;20871;-70
2022/10/20 06:57:52;;;;;;;11.20;3.20;;;;;;;6.98;100.00;101912.81;5035016;28;20538;-70
2022/10/20 07:00:18;;;;;;;8.63;3.83;;;;;;;7.10;100.00;101910.06;5034811;28;20447;-70
2022/10/20 07:02:45;;;;;;;10.43;3.93;;;;;;;7.21;100.00;101916.41;5035064;28;20518;-71
2022/10/20 07:05:11;;;;;;;7.60;3.33;;;;;;;7.30;100.00;101913.09;5034714;28;20949;-70
2022/10/20 07:07:40;;;;;;;7.30;3.63;;;;;;;7.43;100.00;101921.88;5034622;28;21000;-71
2022/10/20 07:10:07;;;;;;;8.53;3.40;;;;;;;7.48;100.00;101925.47;5035104;28;20455;-70
2022/10/20 07:12:34;;;;;;;7.13;2.80;;;;;;;7.55;100.00;101917.22;5034935;28;20442;-71
2022/10/20 07:15:00;;;;;;;8.53;3.77;;;;;;;7.66;100.00;101913.59;5034879;28;20443;-71
2022/10/20 07:17:27;;;;;;;8.63;3.73;;;;;;;7.69;100.00;101910.38;5034724;28;20482;-70
2022/10/20 07:19:53;;;;;;;7.77;3.23;;;;;;;7.78;100.00;101903.50;5034783;28;20450;-70
2022/10/20 07:22:19;;;;;;;8.10;3.03;;;;;;;7.84;100.00;101905.22;5034719;28;20443;-70
2022/10/20 07:24:47;;;;;;;9.93;3.37;;;;;;;7.86;100.00;101918.44;5034379;28;20949;-71
2022/10/20 07:27:14;;;;;;;10.47;3.50;;;;;;;7.96;100.00;101917.75;5034574;28;20478;-70
2022/10/20 07:29:40;;;;;;;13.50;2.80;;;;;;;8.00;100.00;101913.50;5033667;28;20451;-70
2022/10/20 07:32:06;;;;;;;8.07;3.30;;;;;;;8.05;100.00;101919.75;5034292;28;20870;-70
2022/10/20 07:34:33;;;;;;;15.87;3.90;;;;;;;8.15;99.92;101916.38;5034527;28;20443;-72
2022/10/20 07:36:59;;;;;;;9.33;3.43;;;;;;;8.15;98.91;101916.38;5034230;28;20491;-73
2022/10/20 07:39:27;;;;;;;12.60;3.77;;;;;;;8.24;98.39;101919.47;5034129;28;20790;-74
2022/10/20 07:41:55;;;;;;;8.87;3.30;;;;;;;8.29;97.86;101914.13;5034303;28;20447;-73
2022/10/20 07:44:21;;;;;;;9.20;3.47;;;;;;;8.38;97.82;101906.41;5034738;28;20447;-73
2022/10/20 07:46:48;;;;;;;9.73;3.17;;;;;;;8.44;98.21;101903.50;5033192;28;20471;-75
2022/10/20 07:49:14;;;;;;;9.13;2.87;;;;;;;8.53;97.94;101906.56;5027957;28;20562;-76
2022/10/20 07:51:41;;;;;;;6.60;2.87;;;;;;;8.66;97.83;101906.16;5033724;28;20474;-74
2022/10/20 07:54:10;;;;;;;9.43;3.13;;;;;;;8.75;97.66;101909.22;5031934;28;20470;-74
2022/10/20 07:56:39;;;;;;;7.37;3.37;;;;;;;8.83;97.41;101914.97;5032701;28;20490;-74
2022/10/20 07:59:07;;;;;;;55.93;3.97;;;;;;;8.89;97.33;101901.50;5034222;28;20446;-74
2022/10/20 08:01:34;;;;;;;6.30;2.63;;;;;;;8.95;95.97;101903.19;5033287;28;20463;-75
2022/10/20 08:04:00;;;;;;;8.53;3.03;;;;;;;9.10;95.69;101903.31;5032739;28;20447;-75
2022/10/20 08:06:27;;;;;;;8.30;3.60;;;;;;;9.16;95.58;101899.56;5033987;28;20466;-76
2022/10/20 08:08:54;;;;;;;10.73;4.10;;;;;;;9.26;95.16;101899.66;5034229;28;20447;-76
2022/10/20 08:11:21;;;;;;;10.10;3.53;;;;;;;9.32;94.19;101890.50;5033904;28;20862;-73
2022/10/20 08:13:47;;;;;;;8.33;2.67;;;;;;;9.40;93.82;101888.38;5033936;28;20431;-72
2022/10/20 08:16:17;;;;;;;7.50;3.60;;;;;;;9.39;92.24;101881.34;5033650;28;20451;-72
2022/10/20 08:18:43;;;;;;;7.20;3.30;;;;;;;9.44;92.21;101884.91;5033836;28;20813;-74
2022/10/20 08:21:13;;;;;;;8.77;3.47;;;;;;;9.50;92.12;101875.72;5033861;28;20473;-76
2022/10/20 08:23:39;;;;;;;8.87;3.50;;;;;;;9.61;91.78;101879.31;5033642;28;20442;-74
2022/10/20 08:26:06;;;;;;;7.80;3.43;;;;;;;9.69;91.74;101876.09;5033276;28;21015;-74
2022/10/20 08:28:33;;;;;;;8.40;3.43;;;;;;;9.66;91.99;101882.03;5033192;28;20836;-75
2022/10/20 08:31:01;;;;;;;8.17;3.30;;;;;;;9.73;92.03;101879.09;5033197;28;20938;-74
2022/10/20 08:33:29;;;;;;;8.23;3.40;;;;;;;9.84;91.95;101883.50;5033186;28;20447;-74
2022/10/20 08:35:55;;;;;;;7.70;3.10;;;;;;;9.94;91.50;101877.28;5033470;28;20493;-74
2022/10/20 08:38:22;;;;;;;8.27;3.40;;;;;;;10.02;91.12;101872.19;5033455;28;20487;-74
2022/10/20 08:40:48;;;;;;;6.90;2.53;;;;;;;10.10;90.34;101876.28;5033181;28;20443;-74
2022/10/20 08:43:18;;;;;;;9.80;3.20;;;;;;;10.13;90.91;101869.50;5033436;28;20447;-74
2022/10/20 08:45:45;;;;;;;8.23;2.80;;;;;;;10.23;90.89;101874.97;5033298;28;20463;-74
2022/10/20 08:48:17;;;;;;;7.17;3.13;;;;;;;10.28;89.86;101854.16;5033434;28;20435;-74
2022/10/20 08:50:47;;;;;;;12.10;3.20;;;;;;;10.42;89.29;101853.63;5033682;28;20459;-75
2022/10/20 08:53:14;;;;;;;9.27;4.30;;;;;;;10.49;88.61;101856.88;5033780;28;20493;-74
2022/10/20 08:55:43;;;;;;;5.23;2.43;;;;;;;10.59;87.71;101851.50;5033139;28;20574;-74
2022/10/20 08:58:13;;;;;;;5.10;2.30;;;;;;;10.76;87.45;101846.63;5033001;28;20556;-74
2022/10/20 09:00:41;;;;;;;9.17;2.57;;;;;;;10.79;83.21;101851.50;5033011;28;20435;-75
2022/10/20 09:03:15;;;;;;;6.70;2.60;;;;;;;10.90;83.44;101852.31;5031872;28;20447;-75
2022/10/20 09:05:49;;;;;;;5.80;2.90;;;;;;;10.98;83.72;101857.19;5033062;28;20427;-74
2022/10/20 09:08:15;;;;;;;8.23;2.30;;;;;;;11.00;83.74;101846.06;5027085;28;20512;-74
2022/10/20 09:10:47;;;;;;;6.73;3.00;;;;;;;11.06;84.02;101850.38;5019253;28;20514;-75
2022/10/20 09:13:22;;;;;;;5.70;2.33;;;;;;;11.10;82.73;101846.06;5012510;28;20930;-75
2022/10/20 09:15:50;;;;;;;6.10;2.43;;;;;;;11.12;83.47;101846.59;5013308;28;20428;-75
2022/10/20 09:18:18;;;;;;;8.10;3.10;;;;;;;11.17;83.41;101845.78;5013271;28;20491;-75
2022/10/20 09:20:50;;;;;;;5.23;2.37;;;;;;;11.26;83.21;101839.53;5013258;28;20445;-75
2022/10/20 09:23:19;;;;;;;8.20;3.10;;;;;;;11.30;83.62;101823.53;5013244;28;20424;-75
2022/10/20 09:25:47;;;;;;;8.57;3.67;;;;;;;11.41;82.04;101829.72;5013297;28;20856;-75
2022/10/20 09:28:22;;;;;;;6.83;2.77;;;;;;;11.42;81.51;101810.47;5013132;28;20455;-75
2022/10/20 09:30:48;;;;;;;6.97;2.93;;;;;;;11.53;81.89;101820.19;5013003;28;20420;-75
2022/10/20 09:33:22;;;;;;;5.97;2.33;;;;;;;11.62;80.86;101810.38;5013121;28;20483;-74
2022/10/20 09:35:51;;;;;;;7.97;2.67;;;;;;;11.73;80.26;101800.31;5012997;28;20447;-75
2022/10/20 09:38:22;;;;;;;6.50;2.70;;;;;;;11.72;80.48;101812.22;5013035;28;20479;-76
2022/10/20 09:41:05;;;;;;;6.80;2.60;;;;;;;11.75;80.68;101813.59;5013392;28;20459;-74
2022/10/20 09:43:32;;;;;;;5.17;2.43;;;;;;;11.74;80.13;101804.63;5013194;28;20464;-75
2022/10/20 09:46:04;;;;;;;6.17;2.90;;;;;;;11.86;80.17;101799.72;5012665;28;21060;-75
2022/10/20 09:48:33;;;;;;;8.97;3.20;;;;;;;11.95;81.05;101794.50;5014317;28;20439;-75
2022/10/20 09:51:01;;;;;;;7.30;2.53;;;;;;;12.00;80.88;101790.97;5012974;28;20440;-75
2022/10/20 09:53:32;;;;;;;7.90;2.30;;;;;;;12.05;80.10;101790.94;5013963;28;20506;-75
2022/10/20 09:55:58;;;;;;;7.00;2.80;;;;;;;12.15;79.17;101782.72;5016596;28;20894;-77
2022/10/20 09:58:28;;;;;;;8.23;2.80;;;;;;;12.27;77.99;101776.94;5016486;28;20841;-74
2022/10/20 10:00:58;;;;;;;9.13;2.70;;;;;;;12.41;78.60;101782.53;5016068;28;20444;-75
2022/10/20 10:03:25;;;;;;;5.37;2.30;;;;;;;12.55;78.12;101780.78;5016221;28;20907;-76
2022/10/20 10:05:53;;;;;;;6.63;2.87;;;;;;;12.54;75.94;101787.31;5016464;28;20444;-75
2022/10/20 10:08:22;;;;;;;9.13;2.97;;;;;;;12.48;75.63;101759.34;5016338;28;20502;-74
2022/10/20 10:10:59;;;;;;;5.73;2.53;;;;;;;12.60;76.44;101761.72;5016340;28;20440;-73
2022/10/20 10:13:28;;;;;;;4.83;2.30;;;;;;;12.71;76.94;101774.13;5016270;28;20432;-75
2022/10/20 10:16:04;;;;;;;7.20;2.57;;;;;;;12.66;75.42;101752.44;5016193;28;20463;-75
2022/10/20 10:18:31;;;;;;;5.23;2.00;;;;;;;12.67;76.36;101759.47;5016156;28;20471;-75
2022/10/20 10:21:00;;;;;;;5.43;2.03;;;;;;;12.82;74.39;101762.03;5016199;28;20444;-76
2022/10/20 10:23:30;;;;;;;5.70;2.60;;;;;;;12.93;73.30;101746.44;5015833;28;20575;-75
2022/10/20 10:25:57;;;;;;;7.87;2.33;;;;;;;12.96;73.60;101743.13;5015660;28;20463;-75
2022/10/20 10:28:37;;;;;;;5.30;2.70;;;;;;;13.04;73.59;101736.25;5015915;28;20452;-75
2022/10/20 10:31:12;;;;;;;6.13;2.43;;;;;;;13.21;73.89;101730.34;5015646;28;20962;-75
2022/10/20 10:33:39;;;;;;;5.63;1.93;;;;;;;13.28;72.76;101731.66;5018180;28;20506;-75
2022/10/20 10:36:11;;;;;;;4.90;2.40;;;;;;;13.24;71.50;101722.47;5033553;28;20479;-75
2022/10/20 10:38:39;;;;;;;10.53;2.80;;;;;;;13.33;71.82;101720.72;5035332;28;20506;-76
2022/10/20 10:41:14;;;;;;;5.80;2.23;;;;;;;13.32;71.90;101707.38;5035564;28;20849;-76
2022/10/20 10:43:49;;;;;;;4.90;1.93;;;;;;;13.49;70.97;101713.13;5035647;28;20427;-76
2022/10/20 10:46:19;;;;;;;5.80;2.20;;;;;;;13.59;69.25;101709.47;5035045;28;21020;-75
2022/10/20 10:49:01;;;;;;;12.37;2.00;;;;;;;13.65;70.50;101711.03;5035258;28;20427;-73
2022/10/20 10:51:40;;;;;;;4.87;1.70;;;;;;;13.74;69.65;101689.41;5035201;28;20914;-73
2022/10/20 10:54:21;;;;;;;16.83;2.47;;;;;;;13.84;68.70;101681.88;5035143;28;20497;-73
2022/10/20 10:56:49;;;;;;;6.83;2.20;;;;;;;14.03;69.20;101691.94;5035208;28;20471;-72
2022/10/20 10:59:21;;;;;;;4.77;1.60;;;;;;;14.16;67.87;101687.63;5035134;28;20490;-73
2022/10/20 11:02:02;;;;;;;5.63;1.50;;;;;;;14.38;67.12;101688.59;5035263;28;20534;-72
2022/10/20 11:04:47;;;;;;;7.33;2.23;;;;;;;15.30;64.61;101691.53;5034995;28;20518;-73
2022/10/20 11:07:23;;;;;;;4.30;1.47;;;;;;;16.37;61.55;101680.84;5034820;28;20471;-73
2022/10/20 11:10:02;;;;;;;8.97;2.63;;;;;;;17.09;56.08;101677.81;5034719;28;20847;-73
2022/10/20 11:12:45;;;;;;;4.17;1.60;;;;;;;17.90;54.93;101681.94;5034892;28;20813;-73
2022/10/20 11:15:31;;;;;;;4.03;1.83;;;;;;;19.15;52.73;101673.47;5035106;28;20489;-73
2022/10/20 11:18:06;;;;;;;4.13;1.43;;;;;;;19.71;49.57;101665.03;5035087;28;20474;-74
2022/10/20 11:20:42;;;;;;;5.00;1.50;;;;;;;19.42;48.73;101663.91;5035636;28;20427;-73
2022/10/20 11:23:53;;;;;;;5.13;1.47;;;;;;;20.34;48.16;101657.44;5034864;28;20427;-73
2022/10/20 11:26:25;;;;;;;4.57;1.50;;;;;;;21.04;45.76;101654.63;5006634;28;20471;-74
2022/10/20 11:28:54;;;;;;;8.33;1.47;;;;;;;22.21;44.11;101650.94;5034799;28;20443;-74
2022/10/20 11:31:27;;;;;;;4.10;1.30;;;;;;;22.79;43.88;101654.78;5034269;28;20505;-73
2022/10/20 11:34:03;;;;;;;4.17;1.43;;;;;;;22.99;42.35;101652.13;5035001;28;20428;-74
2022/10/20 11:36:35;;;;;;;5.30;1.77;;;;;;;23.07;40.71;101653.91;5034415;28;21005;-73